sensor_id;sensor_type;location;lat;lon;timestamp;pressure;altitude;pressure_sealevel;temperature;humidity
30081;BME280;16902;50.816;12.828;2022-10-31T00:05:01;98222.72;;;7.81;100.00
30081;BME280;16902;50.816;12.828;2022-10-31T00:10:03;98222.53;;;7.75;100.00
30081;BME280;16902;50.816;12.828;2022-10-31T00:15:05;98228.50;;;7.75;100.00
30081;BME280;16902;50.816;12.828;2022-10-31T00:20:08;98222.66;;;7.73;100.00
30081;BME280;16902;50.816;12.828;2022-10-31T00:25:09;98227.38;;;7.78;100.00
30081;BME280;16902;50.816;12.828;2022-10-31T00:30:11;98225.13;;;7.75;100.00
30081;BME280;16902;50.816;12.828;2022-10-31T00:35:13;98229.59;;;7.72;100.00
30081;BME280;16902;50.816;12.828;2022-10-31T00:40:16;98224.13;;;7.76;100.00
30081;BME280;16902;50.816;12.828;2022-10-31T00:45:17;98230.06;;;7.68;100.00
30081;BME280;16902;50.816;12.828;2022-10-31T00:50:19;98229.53;;;7.82;100.00
30081;BME280;16902;50.816;12.828;2022-10-31T00:55:20;98229.25;;;7.67;100.00
30081;BME280;16902;50.816;12.828;2022-10-31T01:00:22;98233.91;;;7.64;100.00
30081;BME280;16902;50.816;12.828;2022-10-31T01:05:24;98238.16;;;7.47;100.00
30081;BME280;16902;50.816;12.828;2022-10-31T01:10:26;98231.09;;;7.39;100.00
30081;BME280;16902;50.816;12.828;2022-10-31T01:15:28;98238.66;;;7.33;100.00
30081;BME280;16902;50.816;12.828;2022-10-31T01:20:29;98231.59;;;7.25;100.00
30081;BME280;16902;50.816;12.828;2022-10-31T01:25:31;98234.34;;;7.24;100.00
30081;BME280;16902;50.816;12.828;2022-10-31T01:30:32;98238.44;;;7.26;100.00
30081;BME280;16902;50.816;12.828;2022-10-31T01:35:34;98236.78;;;7.25;100.00
30081;BME280;16902;50.816;12.828;2022-10-31T01:40:35;98238.28;;;7.28;100.00
30081;BME280;16902;50.816;12.828;2022-10-31T01:45:37;98233.09;;;7.28;100.00
30081;BME280;16902;50.816;12.828;2022-10-31T01:50:39;98239.47;;;7.33;100.00
30081;BME280;16902;50.816;12.828;2022-10-31T01:55:44;98243.63;;;7.26;100.00
30081;BME280;16902;50.816;12.828;2022-10-31T02:00:54;98245.84;;;7.21;100.00
30081;BME280;16902;50.816;12.828;2022-10-31T02:05:58;98235.38;;;7.13;100.00
30081;BME280;16902;50.816;12.828;2022-10-31T02:11:00;98238.84;;;7.04;100.00
30081;BME280;16902;50.816;12.828;2022-10-31T02:16:02;98243.38;;;7.02;100.00
30081;BME280;16902;50.816;12.828;2022-10-31T02:26:58;98243.25;;;6.93;100.00
30081;BME280;16902;50.816;12.828;2022-10-31T02:37:39;98245.19;;;6.91;100.00
30081;BME280;16902;50.816;12.828;2022-10-31T02:42:57;98237.88;;;6.87;100.00
30081;BME280;16902;50.816;12.828;2022-10-31T02:48:09;98234.91;;;6.82;100.00
30081;BME280;16902;50.816;12.828;2022-10-31T02:53:15;98239.38;;;6.80;100.00
30081;BME280;16902;50.816;12.828;2022-10-31T02:58:21;98237.22;;;6.75;100.00
30081;BME280;16902;50.816;12.828;2022-10-31T03:03:52;98236.47;;;6.65;100.00
30081;BME280;16902;50.816;12.828;2022-10-31T03:14:24;98247.13;;;6.52;100.00
30081;BME280;16902;50.816;12.828;2022-10-31T03:19:39;98245.66;;;6.50;100.00
30081;BME280;16902;50.816;12.828;2022-10-31T03:24:42;98247.16;;;6.42;100.00
30081;BME280;16902;50.816;12.828;2022-10-31T03:29:45;98247.88;;;6.35;100.00
30081;BME280;16902;50.816;12.828;2022-10-31T03:34:49;98261.50;;;6.27;100.00
30081;BME280;16902;50.816;12.828;2022-10-31T03:39:54;98268.59;;;6.25;100.00
30081;BME280;16902;50.816;12.828;2022-10-31T03:45:02;98269.66;;;6.23;100.00
30081;BME280;16902;50.816;12.828;2022-10-31T03:50:08;98271.03;;;6.27;100.00
30081;BME280;16902;50.816;12.828;2022-10-31T04:00:16;98272.28;;;6.13;100.00
30081;BME280;16902;50.816;12.828;2022-10-31T04:05:20;98266.44;;;6.11;100.00
30081;BME280;16902;50.816;12.828;2022-10-31T04:10:24;98267.25;;;6.11;100.00
30081;BME280;16902;50.816;12.828;2022-10-31T04:15:34;98269.69;;;6.13;100.00
30081;BME280;16902;50.816;12.828;2022-10-31T04:20:39;98269.53;;;6.24;100.00
30081;BME280;16902;50.816;12.828;2022-10-31T04:25:42;98265.84;;;6.27;100.00
30081;BME280;16902;50.816;12.828;2022-10-31T04:30:44;98266.41;;;6.21;100.00
30081;BME280;16902;50.816;12.828;2022-10-31T04:35:46;98264.50;;;6.23;100.00
30081;BME280;16902;50.816;12.828;2022-10-31T04:40:48;98275.38;;;6.26;100.00
30081;BME280;16902;50.816;12.828;2022-10-31T04:46:12;98277.16;;;6.26;100.00
30081;BME280;16902;50.816;12.828;2022-10-31T04:51:14;98269.41;;;6.16;100.00
30081;BME280;16902;50.816;12.828;2022-10-31T04:56:16;98266.13;;;6.14;100.00
30081;BME280;16902;50.816;12.828;2022-10-31T05:01:21;98263.16;;;6.09;100.00
30081;BME280;16902;50.816;12.828;2022-10-31T05:06:23;98270.09;;;6.08;100.00
30081;BME280;16902;50.816;12.828;2022-10-31T05:11:24;98268.63;;;6.06;100.00
30081;BME280;16902;50.816;12.828;2022-10-31T05:16:29;98272.28;;;6.03;100.00
30081;BME280;16902;50.816;12.828;2022-10-31T05:22:08;98268.91;;;5.93;100.00
30081;BME280;16902;50.816;12.828;2022-10-31T05:27:11;98275.44;;;5.97;100.00
30081;BME280;16902;50.816;12.828;2022-10-31T05:32:13;98281.00;;;5.92;100.00
30081;BME280;16902;50.816;12.828;2022-10-31T05:37:49;98279.38;;;5.91;100.00
30081;BME280;16902;50.816;12.828;2022-10-31T05:42:52;98279.75;;;5.87;100.00
30081;BME280;16902;50.816;12.828;2022-10-31T05:47:57;98283.56;;;5.83;100.00
30081;BME280;16902;50.816;12.828;2022-10-31T05:53:19;98283.31;;;5.76;100.00
30081;BME280;16902;50.816;12.828;2022-10-31T05:58:21;98286.81;;;5.75;100.00
30081;BME280;16902;50.816;12.828;2022-10-31T06:03:30;98293.22;;;5.71;100.00
30081;BME280;16902;50.816;12.828;2022-10-31T06:08:35;98299.06;;;5.73;100.00
30081;BME280;16902;50.816;12.828;2022-10-31T06:13:40;98299.22;;;5.81;100.00
30081;BME280;16902;50.816;12.828;2022-10-31T06:18:50;98304.50;;;5.89;100.00
30081;BME280;16902;50.816;12.828;2022-10-31T06:23:51;98302.09;;;5.98;100.00
30081;BME280;16902;50.816;12.828;2022-10-31T06:29:12;98307.81;;;6.01;100.00
30081;BME280;16902;50.816;12.828;2022-10-31T06:34:32;98302.78;;;6.00;100.00
30081;BME280;16902;50.816;12.828;2022-10-31T06:39:34;98311.34;;;6.00;100.00
30081;BME280;16902;50.816;12.828;2022-10-31T06:44:36;98315.56;;;6.11;100.00
30081;BME280;16902;50.816;12.828;2022-10-31T06:49:56;98319.09;;;6.20;100.00
30081;BME280;16902;50.816;12.828;2022-10-31T06:54:59;98319.88;;;6.30;100.00
30081;BME280;16902;50.816;12.828;2022-10-31T07:00:02;98322.56;;;6.38;100.00
30081;BME280;16902;50.816;12.828;2022-10-31T07:05:16;98328.56;;;6.48;100.00
30081;BME280;16902;50.816;12.828;2022-10-31T07:10:18;98327.28;;;6.62;100.00
30081;BME280;16902;50.816;12.828;2022-10-31T07:15:29;98341.41;;;6.77;100.00
30081;BME280;16902;50.816;12.828;2022-10-31T07:20:32;98342.72;;;6.91;100.00
30081;BME280;16902;50.816;12.828;2022-10-31T07:25:34;98345.34;;;7.18;100.00
30081;BME280;16902;50.816;12.828;2022-10-31T07:30:39;98355.69;;;7.46;100.00
30081;BME280;16902;50.816;12.828;2022-10-31T07:35:43;98349.94;;;7.70;100.00
30081;BME280;16902;50.816;12.828;2022-10-31T07:40:50;98354.47;;;8.04;100.00
30081;BME280;16902;50.816;12.828;2022-10-31T07:45:53;98351.41;;;8.44;100.00
30081;BME280;16902;50.816;12.828;2022-10-31T07:51:10;98356.50;;;8.80;100.00
30081;BME280;16902;50.816;12.828;2022-10-31T07:56:32;98357.84;;;9.18;100.00
30081;BME280;16902;50.816;12.828;2022-10-31T08:01:34;98347.25;;;9.53;100.00
30081;BME280;16902;50.816;12.828;2022-10-31T08:06:58;98345.72;;;9.93;100.00
30081;BME280;16902;50.816;12.828;2022-10-31T08:12:05;98341.84;;;10.38;100.00
30081;BME280;16902;50.816;12.828;2022-10-31T08:17:09;98341.13;;;10.85;100.00
30081;BME280;16902;50.816;12.828;2022-10-31T08:22:24;98344.88;;;11.30;100.00
30081;BME280;16902;50.816;12.828;2022-10-31T08:27:26;98338.75;;;11.77;100.00
30081;BME280;16902;50.816;12.828;2022-10-31T08:32:31;98345.44;;;12.25;100.00
30081;BME280;16902;50.816;12.828;2022-10-31T08:37:42;98340.13;;;12.71;100.00
30081;BME280;16902;50.816;12.828;2022-10-31T08:42:44;98349.22;;;13.20;100.00
30081;BME280;16902;50.816;12.828;2022-10-31T08:47:46;98339.91;;;13.61;100.00
30081;BME280;16902;50.816;12.828;2022-10-31T08:52:48;98340.31;;;14.01;100.00
30081;BME280;16902;50.816;12.828;2022-10-31T08:58:13;98343.38;;;14.48;100.00
30081;BME280;16902;50.816;12.828;2022-10-31T09:03:23;98346.47;;;14.93;100.00
30081;BME280;16902;50.816;12.828;2022-10-31T09:08:29;98341.47;;;14.98;100.00
30081;BME280;16902;50.816;12.828;2022-10-31T09:13:32;98341.53;;;15.04;100.00
30081;BME280;16902;50.816;12.828;2022-10-31T09:19:02;98340.16;;;15.15;100.00
30081;BME280;16902;50.816;12.828;2022-10-31T09:24:10;98345.13;;;15.45;100.00
30081;BME280;16902;50.816;12.828;2022-10-31T09:29:12;98342.03;;;15.82;100.00
30081;BME280;16902;50.816;12.828;2022-10-31T09:34:14;98334.00;;;16.10;100.00
30081;BME280;16902;50.816;12.828;2022-10-31T09:39:20;98328.72;;;16.04;100.00
30081;BME280;16902;50.816;12.828;2022-10-31T09:50:15;98343.09;;;16.21;100.00
30081;BME280;16902;50.816;12.828;2022-10-31T10:00:47;98344.72;;;16.75;100.00
30081;BME280;16902;50.816;12.828;2022-10-31T10:21:57;98331.97;;;18.20;100.00
30081;BME280;16902;50.816;12.828;2022-10-31T10:33:02;98321.97;;;18.29;100.00
30081;BME280;16902;50.816;12.828;2022-10-31T10:43:37;98313.22;;;22.75;100.00
30081;BME280;16902;50.816;12.828;2022-10-31T10:48:53;98311.69;;;24.53;100.00
30081;BME280;16902;50.816;12.828;2022-10-31T10:54:23;98303.00;;;24.73;100.00
30081;BME280;16902;50.816;12.828;2022-10-31T10:59:28;98296.19;;;23.32;100.00
30081;BME280;16902;50.816;12.828;2022-10-31T11:04:36;98288.94;;;24.03;100.00
30081;BME280;16902;50.816;12.828;2022-10-31T11:09:40;98294.91;;;23.62;100.00
30081;BME280;16902;50.816;12.828;2022-10-31T11:14:51;98289.06;;;23.38;100.00
30081;BME280;16902;50.816;12.828;2022-10-31T11:30:21;98257.56;;;21.91;100.00
30081;BME280;16902;50.816;12.828;2022-10-31T11:35:23;98247.25;;;23.82;100.00
30081;BME280;16902;50.816;12.828;2022-10-31T11:40:26;98256.13;;;24.67;100.00
30081;BME280;16902;50.816;12.828;2022-10-31T11:45:32;98242.53;;;23.89;100.00
30081;BME280;16902;50.816;12.828;2022-10-31T11:50:40;98238.84;;;25.63;100.00
30081;BME280;16902;50.816;12.828;2022-10-31T11:55:42;98232.66;;;26.54;100.00
30081;BME280;16902;50.816;12.828;2022-10-31T12:00:49;98221.69;;;27.26;98.30
30081;BME280;16902;50.816;12.828;2022-10-31T12:06:01;98219.47;;;26.83;100.00
30081;BME280;16902;50.816;12.828;2022-10-31T12:27:02;98194.00;;;25.19;100.00
30081;BME280;16902;50.816;12.828;2022-10-31T12:32:47;98183.78;;;24.91;100.00
30081;BME280;16902;50.816;12.828;2022-10-31T12:54:41;98163.66;;;25.76;100.00
30081;BME280;16902;50.816;12.828;2022-10-31T12:59:52;98163.94;;;24.61;100.00
30081;BME280;16902;50.816;12.828;2022-10-31T13:05:04;98149.78;;;25.64;100.00
30081;BME280;16902;50.816;12.828;2022-10-31T13:10:25;98148.31;;;26.33;100.00
30081;BME280;16902;50.816;12.828;2022-10-31T13:15:33;98145.97;;;27.64;92.05
30081;BME280;16902;50.816;12.828;2022-10-31T13:20:42;98149.72;;;26.15;99.62
30081;BME280;16902;50.816;12.828;2022-10-31T13:25:47;98145.84;;;23.09;100.00
30081;BME280;16902;50.816;12.828;2022-10-31T13:30:51;98137.91;;;21.20;100.00
30081;BME280;16902;50.816;12.828;2022-10-31T13:36:12;98134.63;;;19.50;100.00
30081;BME280;16902;50.816;12.828;2022-10-31T13:46:38;98124.34;;;18.40;100.00
30081;BME280;16902;50.816;12.828;2022-10-31T13:51:40;98122.28;;;18.24;100.00
30081;BME280;16902;50.816;12.828;2022-10-31T13:56:42;98115.94;;;18.13;100.00
30081;BME280;16902;50.816;12.828;2022-10-31T14:01:55;98120.16;;;17.96;100.00
30081;BME280;16902;50.816;12.828;2022-10-31T14:07:05;98120.28;;;17.83;100.00
30081;BME280;16902;50.816;12.828;2022-10-31T14:12:12;98118.75;;;17.75;100.00
30081;BME280;16902;50.816;12.828;2022-10-31T14:17:19;98113.72;;;17.67;100.00
30081;BME280;16902;50.816;12.828;2022-10-31T14:22:23;98103.19;;;17.42;100.00
30081;BME280;16902;50.816;12.828;2022-10-31T14:32:27;98099.69;;;16.91;100.00
30081;BME280;16902;50.816;12.828;2022-10-31T14:37:56;98092.72;;;16.72;100.00
30081;BME280;16902;50.816;12.828;2022-10-31T14:48:52;98077.06;;;16.39;100.00
30081;BME280;16902;50.816;12.828;2022-10-31T14:54:00;98066.25;;;16.22;100.00
30081;BME280;16902;50.816;12.828;2022-10-31T14:59:14;98059.38;;;16.21;100.00
30081;BME280;16902;50.816;12.828;2022-10-31T15:04:22;98056.19;;;16.06;100.00
30081;BME280;16902;50.816;12.828;2022-10-31T15:09:33;98047.97;;;15.89;100.00
30081;BME280;16902;50.816;12.828;2022-10-31T15:14:35;98051.84;;;15.73;100.00
30081;BME280;16902;50.816;12.828;2022-10-31T15:19:37;98054.47;;;15.40;100.00
30081;BME280;16902;50.816;12.828;2022-10-31T15:24:39;98045.00;;;15.12;100.00
30081;BME280;16902;50.816;12.828;2022-10-31T15:29:55;98033.88;;;14.84;100.00
30081;BME280;16902;50.816;12.828;2022-10-31T15:34:57;98031.22;;;14.57;100.00
30081;BME280;16902;50.816;12.828;2022-10-31T15:40:07;98021.84;;;14.28;100.00
30081;BME280;16902;50.816;12.828;2022-10-31T15:50:21;98016.38;;;13.75;100.00
30081;BME280;16902;50.816;12.828;2022-10-31T15:55:38;98016.84;;;13.51;100.00
30081;BME280;16902;50.816;12.828;2022-10-31T16:01:04;98015.91;;;13.30;100.00
30081;BME280;16902;50.816;12.828;2022-10-31T16:06:19;98009.06;;;13.08;100.00
30081;BME280;16902;50.816;12.828;2022-10-31T16:11:23;98007.69;;;12.91;100.00
30081;BME280;16902;50.816;12.828;2022-10-31T16:16:26;98010.03;;;12.79;100.00
30081;BME280;16902;50.816;12.828;2022-10-31T16:21:38;98007.13;;;12.67;100.00
30081;BME280;16902;50.816;12.828;2022-10-31T16:26:40;98005.53;;;12.51;100.00
30081;BME280;16902;50.816;12.828;2022-10-31T16:31:41;97999.44;;;12.44;100.00
30081;BME280;16902;50.816;12.828;2022-10-31T16:36:43;97995.53;;;12.33;100.00
30081;BME280;16902;50.816;12.828;2022-10-31T16:41:46;97994.03;;;12.24;100.00
30081;BME280;16902;50.816;12.828;2022-10-31T16:47:08;97987.28;;;12.15;100.00
30081;BME280;16902;50.816;12.828;2022-10-31T16:52:10;97984.78;;;12.07;100.00
30081;BME280;16902;50.816;12.828;2022-10-31T16:57:15;97973.38;;;11.93;100.00
30081;BME280;16902;50.816;12.828;2022-10-31T17:02:18;97983.44;;;11.81;100.00
30081;BME280;16902;50.816;12.828;2022-10-31T17:07:20;97971.31;;;11.74;100.00
30081;BME280;16902;50.816;12.828;2022-10-31T17:12:24;97969.72;;;11.58;100.00
30081;BME280;16902;50.816;12.828;2022-10-31T17:17:26;97970.78;;;11.49;100.00
30081;BME280;16902;50.816;12.828;2022-10-31T17:22:28;97972.31;;;11.43;100.00
30081;BME280;16902;50.816;12.828;2022-10-31T17:27:29;97975.38;;;11.32;100.00
30081;BME280;16902;50.816;12.828;2022-10-31T17:32:31;97968.63;;;11.23;100.00
30081;BME280;16902;50.816;12.828;2022-10-31T17:37:33;97970.31;;;11.16;100.00
30081;BME280;16902;50.816;12.828;2022-10-31T17:42:35;97969.75;;;11.05;100.00
30081;BME280;16902;50.816;12.828;2022-10-31T17:47:36;97969.66;;;10.99;100.00
30081;BME280;16902;50.816;12.828;2022-10-31T17:52:38;97965.25;;;10.85;100.00
30081;BME280;16902;50.816;12.828;2022-10-31T17:57:40;97960.81;;;10.70;100.00
30081;BME280;16902;50.816;12.828;2022-10-31T18:02:42;97967.56;;;10.57;100.00
30081;BME280;16902;50.816;12.828;2022-10-31T18:07:48;97969.28;;;10.49;100.00
30081;BME280;16902;50.816;12.828;2022-10-31T18:12:50;97966.06;;;10.62;100.00
30081;BME280;16902;50.816;12.828;2022-10-31T18:17:51;97957.72;;;10.67;100.00
30081;BME280;16902;50.816;12.828;2022-10-31T18:22:53;97951.16;;;10.56;100.00
30081;BME280;16902;50.816;12.828;2022-10-31T18:27:55;97938.25;;;10.40;100.00
30081;BME280;16902;50.816;12.828;2022-10-31T18:32:57;97952.56;;;10.59;100.00
30081;BME280;16902;50.816;12.828;2022-10-31T18:37:58;97956.41;;;10.71;100.00
30081;BME280;16902;50.816;12.828;2022-10-31T18:43:03;97934.91;;;10.54;100.00
30081;BME280;16902;50.816;12.828;2022-10-31T18:48:06;97923.97;;;10.36;100.00
30081;BME280;16902;50.816;12.828;2022-10-31T18:53:08;97926.72;;;10.34;100.00
30081;BME280;16902;50.816;12.828;2022-10-31T18:58:09;97924.50;;;10.31;100.00
30081;BME280;16902;50.816;12.828;2022-10-31T19:03:12;97926.78;;;10.49;100.00
30081;BME280;16902;50.816;12.828;2022-10-31T19:08:14;97919.16;;;10.47;100.00
30081;BME280;16902;50.816;12.828;2022-10-31T19:13:15;97914.38;;;10.36;100.00
30081;BME280;16902;50.816;12.828;2022-10-31T19:18:17;97905.81;;;10.27;100.00
30081;BME280;16902;50.816;12.828;2022-10-31T19:23:19;97906.06;;;10.10;100.00
30081;BME280;16902;50.816;12.828;2022-10-31T19:28:21;97901.84;;;10.09;100.00
30081;BME280;16902;50.816;12.828;2022-10-31T19:33:23;97892.91;;;10.11;100.00
30081;BME280;16902;50.816;12.828;2022-10-31T19:38:32;97890.13;;;10.13;100.00
30081;BME280;16902;50.816;12.828;2022-10-31T19:43:34;97885.25;;;10.10;100.00
30081;BME280;16902;50.816;12.828;2022-10-31T19:48:36;97883.00;;;10.07;100.00
30081;BME280;16902;50.816;12.828;2022-10-31T19:53:39;97877.16;;;10.04;100.00
30081;BME280;16902;50.816;12.828;2022-10-31T19:58:41;97870.25;;;9.97;100.00
30081;BME280;16902;50.816;12.828;2022-10-31T20:03:43;97873.41;;;9.84;100.00
30081;BME280;16902;50.816;12.828;2022-10-31T20:08:45;97874.13;;;9.70;100.00
30081;BME280;16902;50.816;12.828;2022-10-31T20:13:47;97872.00;;;9.73;100.00
30081;BME280;16902;50.816;12.828;2022-10-31T20:18:49;97868.97;;;9.62;100.00
30081;BME280;16902;50.816;12.828;2022-10-31T20:24:09;97852.19;;;9.41;100.00
30081;BME280;16902;50.816;12.828;2022-10-31T20:29:12;97855.16;;;9.30;100.00
30081;BME280;16902;50.816;12.828;2022-10-31T20:34:16;97865.13;;;9.49;100.00
30081;BME280;16902;50.816;12.828;2022-10-31T20:39:17;97870.75;;;9.30;100.00
30081;BME280;16902;50.816;12.828;2022-10-31T20:44:19;97865.97;;;9.02;100.00
30081;BME280;16902;50.816;12.828;2022-10-31T20:49:21;97853.72;;;8.80;100.00
30081;BME280;16902;50.816;12.828;2022-10-31T20:54:22;97848.66;;;8.87;100.00
30081;BME280;16902;50.816;12.828;2022-10-31T20:59:24;97844.81;;;8.58;100.00
30081;BME280;16902;50.816;12.828;2022-10-31T21:04:25;97850.50;;;8.62;100.00
30081;BME280;16902;50.816;12.828;2022-10-31T21:09:27;97836.06;;;8.59;100.00
30081;BME280;16902;50.816;12.828;2022-10-31T21:14:29;97837.38;;;8.47;100.00
30081;BME280;16902;50.816;12.828;2022-10-31T21:19:30;97839.47;;;8.35;100.00
30081;BME280;16902;50.816;12.828;2022-10-31T21:24:32;97844.66;;;8.35;100.00
30081;BME280;16902;50.816;12.828;2022-10-31T21:29:34;97830.88;;;8.27;100.00
30081;BME280;16902;50.816;12.828;2022-10-31T21:34:35;97835.09;;;8.28;100.00
30081;BME280;16902;50.816;12.828;2022-10-31T21:39:37;97823.59;;;8.38;100.00
30081;BME280;16902;50.816;12.828;2022-10-31T21:44:38;97832.00;;;8.16;100.00
30081;BME280;16902;50.816;12.828;2022-10-31T21:49:40;97821.97;;;8.05;100.00
30081;BME280;16902;50.816;12.828;2022-10-31T21:54:42;97818.06;;;7.92;100.00
30081;BME280;16902;50.816;12.828;2022-10-31T21:59:43;97805.25;;;7.83;100.00
30081;BME280;16902;50.816;12.828;2022-10-31T22:04:48;97800.72;;;7.68;100.00
30081;BME280;16902;50.816;12.828;2022-10-31T22:09:51;97796.81;;;7.56;100.00
30081;BME280;16902;50.816;12.828;2022-10-31T22:14:53;97786.97;;;7.60;100.00
30081;BME280;16902;50.816;12.828;2022-10-31T22:19:54;97785.13;;;7.44;100.00
30081;BME280;16902;50.816;12.828;2022-10-31T22:24:56;97782.53;;;7.36;100.00
30081;BME280;16902;50.816;12.828;2022-10-31T22:29:58;97765.88;;;7.30;100.00
30081;BME280;16902;50.816;12.828;2022-10-31T22:34:59;97764.53;;;7.34;100.00
30081;BME280;16902;50.816;12.828;2022-10-31T22:40:01;97751.94;;;7.31;100.00
30081;BME280;16902;50.816;12.828;2022-10-31T22:45:03;97747.72;;;7.30;100.00
30081;BME280;16902;50.816;12.828;2022-10-31T22:50:04;97744.66;;;7.27;100.00
30081;BME280;16902;50.816;12.828;2022-10-31T22:55:06;97745.44;;;7.19;100.00
30081;BME280;16902;50.816;12.828;2022-10-31T23:00:09;97741.69;;;7.13;100.00
30081;BME280;16902;50.816;12.828;2022-10-31T23:05:10;97735.03;;;7.03;100.00
30081;BME280;16902;50.816;12.828;2022-10-31T23:10:12;97731.31;;;6.97;100.00
30081;BME280;16902;50.816;12.828;2022-10-31T23:15:14;97727.25;;;6.94;100.00
30081;BME280;16902;50.816;12.828;2022-10-31T23:20:15;97720.91;;;6.89;100.00
30081;BME280;16902;50.816;12.828;2022-10-31T23:25:17;97727.06;;;6.96;100.00
30081;BME280;16902;50.816;12.828;2022-10-31T23:30:37;97719.94;;;6.82;100.00
30081;BME280;16902;50.816;12.828;2022-10-31T23:35:39;97717.47;;;6.72;100.00
30081;BME280;16902;50.816;12.828;2022-10-31T23:40:41;97716.13;;;6.60;100.00
30081;BME280;16902;50.816;12.828;2022-10-31T23:45:43;97706.44;;;6.62;100.00
30081;BME280;16902;50.816;12.828;2022-10-31T23:50:46;97691.69;;;6.54;100.00
30081;BME280;16902;50.816;12.828;2022-10-31T23:55:48;97698.91;;;6.42;100.00
